Pagina principale
METAR-TAF:

METAR-TAF

Aeroporti :

Lecce, Italia

Aeroporto di Lecce-Galatina

latitudine: 40-14N, longitudine: 018-09E, altezza: 48 m

Osservazione

Il bollettino è stato emesso 1 ora e 13 minuti fa, alle 11:55 UTC
Vento 14 kt da ovest/sud-ovest
Temperature 14°C
Umidità 72%
Pressione 1016 hPa
Visibilità 10 km o più
Poco nuvoloso ad un'altezza di 2500 ft

METAR: LIBN 161155Z 25014KT 9999 FEW025 14/09 Q1016 RMK FEW VIS MIN 9999 WIND THR14 24015KT WIND THR32 24016KT BLU

Ora: 14:08 (13:08 UTC)

Previsione

Il bollettino è stato emesso 2 ore e 8 minuti fa, alle 11:00 UTC
Previsione valida dal 16 alle 12 UTC al 16 alle 21 UTC
Vento 15 kt da sud-ovest
Visibilità 10 km o più
Poco nuvoloso ad un'altezza di 2000 ft
Temporaneamente
dal 16 alle 12 UTC al 16 alle 15 UTC
Vento 15 kt da sud-ovest con raffiche fino a 25 kt

TAF: LIBN 161100Z 1612/1621 23015KT 9999 FEW020 TEMPO 1612/1615 23015G25KT

Osservazioni e previsioni meteorologiche di più di 4000 aeroporti (messaggi METAR e TAF).

Le stazioni disponibili sono rappresentate dai dischi gialli e rossi sulla carta.

Puntare il mouse per vedere il nome della stazione.

Clicca sopra per visualizzare le osservazioni e previsioni meteorologiche.

Per cambiare la mappa : fare clic sui pulsanti verdi con una croce nera per ingrandire, il pulsante verde con un trattino per diminuire, o sulla freccia verde per le mappe adiacenti.


METAR-TAF: